Terminal Aerodrome Forecast
Issued by NWS Cleveland, OH

Home | Current Version | Previous Version | Graphics & Text | Print | Product List | Glossary Off
Versions: 1 2 3 4 5 6 7 8 9 10 11 12 13 14 15 16 17 18 19 20 21 22

000
FTUS41 KCLE 011700
TAFCAK
TAF
KCAK 011722Z 0118/0218 21010G18KT P6SM BKN035
      TEMPO 0118/0120 BKN015
     FM012300 22010G18KT P6SM VCTS BKN050CB
     FM020200 22008KT P6SM BKN070
     FM021100 23006KT 3SM SHRA VCTS OVC025CB
     FM021600 24008KT 5SM -SHRA OVC035=

USA.gov is the U.S. government's official web portal to all federal, state and local government web resources and services.